sensor_id;sensor_type;location;lat;lon;timestamp;pressure;altitude;pressure_sealevel;temperature;humidity
56992;BME280;42885;49.754;18.636;2022-07-18T00:01:36;99315.61;;;12.27;100.00
56992;BME280;42885;49.754;18.636;2022-07-18T00:04:12;99310.44;;;12.34;100.00
56992;BME280;42885;49.754;18.636;2022-07-18T00:06:54;99308.41;;;12.39;100.00
56992;BME280;42885;49.754;18.636;2022-07-18T00:09:33;99303.82;;;12.61;100.00
56992;BME280;42885;49.754;18.636;2022-07-18T00:12:15;99295.98;;;12.43;100.00
56992;BME280;42885;49.754;18.636;2022-07-18T00:14:53;99294.52;;;12.37;100.00
56992;BME280;42885;49.754;18.636;2022-07-18T00:17:31;99294.07;;;12.38;100.00
56992;BME280;42885;49.754;18.636;2022-07-18T00:20:11;99296.24;;;12.30;100.00
56992;BME280;42885;49.754;18.636;2022-07-18T00:22:53;99293.27;;;11.46;100.00
56992;BME280;42885;49.754;18.636;2022-07-18T00:25:26;99293.72;;;11.74;100.00
56992;BME280;42885;49.754;18.636;2022-07-18T00:28:03;99299.41;;;11.36;100.00
56992;BME280;42885;49.754;18.636;2022-07-18T00:30:43;99294.81;;;11.22;100.00
56992;BME280;42885;49.754;18.636;2022-07-18T00:33:17;99295.00;;;11.56;100.00
56992;BME280;42885;49.754;18.636;2022-07-18T00:36:02;99292.45;;;11.54;100.00
56992;BME280;42885;49.754;18.636;2022-07-18T00:38:34;99286.84;;;11.34;100.00
56992;BME280;42885;49.754;18.636;2022-07-18T00:41:16;99287.23;;;11.16;100.00
56992;BME280;42885;49.754;18.636;2022-07-18T00:43:55;99286.84;;;11.06;100.00
56992;BME280;42885;49.754;18.636;2022-07-18T00:46:31;99285.37;;;11.74;100.00
56992;BME280;42885;49.754;18.636;2022-07-18T00:49:05;99281.86;;;11.93;100.00
56992;BME280;42885;49.754;18.636;2022-07-18T00:51:39;99277.83;;;11.94;100.00
56992;BME280;42885;49.754;18.636;2022-07-18T00:54:18;99280.84;;;11.87;100.00
56992;BME280;42885;49.754;18.636;2022-07-18T00:56:58;99276.30;;;11.90;100.00
56992;BME280;42885;49.754;18.636;2022-07-18T00:59:41;99279.02;;;12.06;100.00
56992;BME280;42885;49.754;18.636;2022-07-18T01:02:38;99274.55;;;12.17;100.00
56992;BME280;42885;49.754;18.636;2022-07-18T01:05:20;99277.67;;;11.62;100.00
56992;BME280;42885;49.754;18.636;2022-07-18T01:07:59;99274.75;;;11.77;100.00
56992;BME280;42885;49.754;18.636;2022-07-18T01:10:41;99278.98;;;11.71;100.00
56992;BME280;42885;49.754;18.636;2022-07-18T01:13:15;99279.17;;;11.57;100.00
56992;BME280;42885;49.754;18.636;2022-07-18T01:15:51;99277.23;;;10.96;100.00
56992;BME280;42885;49.754;18.636;2022-07-18T01:18:22;99278.19;;;10.85;100.00
56992;BME280;42885;49.754;18.636;2022-07-18T01:20:52;99279.20;;;11.29;100.00
56992;BME280;42885;49.754;18.636;2022-07-18T01:23:24;99281.48;;;11.18;100.00
56992;BME280;42885;49.754;18.636;2022-07-18T01:25:54;99286.51;;;11.23;100.00
56992;BME280;42885;49.754;18.636;2022-07-18T01:28:25;99280.45;;;11.40;100.00
56992;BME280;42885;49.754;18.636;2022-07-18T01:31:01;99276.36;;;11.34;100.00
56992;BME280;42885;49.754;18.636;2022-07-18T01:33:35;99277.06;;;11.38;100.00
56992;BME280;42885;49.754;18.636;2022-07-18T01:36:09;99280.34;;;11.24;100.00
56992;BME280;42885;49.754;18.636;2022-07-18T01:38:42;99276.02;;;11.42;100.00
56992;BME280;42885;49.754;18.636;2022-07-18T01:41:13;99283.08;;;11.40;100.00
56992;BME280;42885;49.754;18.636;2022-07-18T01:43:48;99281.48;;;11.46;100.00
56992;BME280;42885;49.754;18.636;2022-07-18T01:46:23;99285.95;;;11.44;100.00
56992;BME280;42885;49.754;18.636;2022-07-18T01:48:55;99276.02;;;11.42;100.00
56992;BME280;42885;49.754;18.636;2022-07-18T01:51:30;99285.89;;;11.54;100.00
56992;BME280;42885;49.754;18.636;2022-07-18T01:54:02;99277.09;;;11.47;100.00
56992;BME280;42885;49.754;18.636;2022-07-18T01:56:33;99273.80;;;11.61;100.00
56992;BME280;42885;49.754;18.636;2022-07-18T01:59:04;99272.20;;;11.39;100.00
56992;BME280;42885;49.754;18.636;2022-07-18T02:01:35;99277.08;;;11.19;100.00
56992;BME280;42885;49.754;18.636;2022-07-18T02:04:06;99274.02;;;11.00;100.00
56992;BME280;42885;49.754;18.636;2022-07-18T02:06:37;99282.95;;;10.96;100.00
56992;BME280;42885;49.754;18.636;2022-07-18T02:09:10;99277.23;;;11.15;100.00
56992;BME280;42885;49.754;18.636;2022-07-18T02:11:41;99279.64;;;11.01;100.00
56992;BME280;42885;49.754;18.636;2022-07-18T02:14:12;99283.30;;;11.16;100.00
56992;BME280;42885;49.754;18.636;2022-07-18T02:16:43;99285.31;;;11.11;100.00
56992;BME280;42885;49.754;18.636;2022-07-18T02:19:13;99289.30;;;11.09;100.00
56992;BME280;42885;49.754;18.636;2022-07-18T02:21:44;99286.52;;;10.74;100.00
56992;BME280;42885;49.754;18.636;2022-07-18T02:24:15;99284.77;;;10.64;100.00
56992;BME280;42885;49.754;18.636;2022-07-18T02:26:46;99295.89;;;11.18;100.00
56992;BME280;42885;49.754;18.636;2022-07-18T02:29:17;99292.52;;;11.06;100.00
56992;BME280;42885;49.754;18.636;2022-07-18T02:31:48;99292.21;;;10.84;100.00
56992;BME280;42885;49.754;18.636;2022-07-18T02:34:19;99295.66;;;10.84;100.00
56992;BME280;42885;49.754;18.636;2022-07-18T02:36:50;99291.75;;;11.23;100.00
56992;BME280;42885;49.754;18.636;2022-07-18T02:39:22;99295.95;;;11.17;100.00
56992;BME280;42885;49.754;18.636;2022-07-18T02:41:55;99292.67;;;11.03;100.00
56992;BME280;42885;49.754;18.636;2022-07-18T02:44:27;99289.47;;;11.15;100.00
56992;BME280;42885;49.754;18.636;2022-07-18T02:46:58;99289.95;;;11.42;100.00
56992;BME280;42885;49.754;18.636;2022-07-18T02:49:29;99292.70;;;11.59;100.00
56992;BME280;42885;49.754;18.636;2022-07-18T02:52:04;99294.75;;;11.05;100.00
56992;BME280;42885;49.754;18.636;2022-07-18T02:54:37;99288.41;;;11.47;100.00
56992;BME280;42885;49.754;18.636;2022-07-18T02:57:09;99295.35;;;11.48;100.00
56992;BME280;42885;49.754;18.636;2022-07-18T02:59:52;99297.22;;;11.27;100.00
56992;BME280;42885;49.754;18.636;2022-07-18T03:02:28;99289.25;;;11.67;100.00
56992;BME280;42885;49.754;18.636;2022-07-18T03:05:08;99293.27;;;11.46;100.00
56992;BME280;42885;49.754;18.636;2022-07-18T03:07:52;99287.17;;;11.18;100.00
56992;BME280;42885;49.754;18.636;2022-07-18T03:10:36;99287.16;;;11.09;100.00
56992;BME280;42885;49.754;18.636;2022-07-18T03:13:14;99293.28;;;11.18;100.00
56992;BME280;42885;49.754;18.636;2022-07-18T03:15:48;99291.84;;;10.62;100.00
56992;BME280;42885;49.754;18.636;2022-07-18T03:18:32;99290.21;;;10.59;100.00
56992;BME280;42885;49.754;18.636;2022-07-18T03:21:11;99296.42;;;10.57;100.00
56992;BME280;42885;49.754;18.636;2022-07-18T03:23:57;99293.81;;;10.67;100.00
56992;BME280;42885;49.754;18.636;2022-07-18T03:26:28;99297.44;;;11.03;100.00
56992;BME280;42885;49.754;18.636;2022-07-18T03:28:59;99299.23;;;11.31;100.00
56992;BME280;42885;49.754;18.636;2022-07-18T03:31:31;99302.27;;;10.83;100.00
56992;BME280;42885;49.754;18.636;2022-07-18T03:34:02;99302.53;;;10.87;100.00
56992;BME280;42885;49.754;18.636;2022-07-18T03:36:33;99304.20;;;11.37;100.00
56992;BME280;42885;49.754;18.636;2022-07-18T03:39:05;99303.70;;;11.28;100.00
56992;BME280;42885;49.754;18.636;2022-07-18T03:41:37;99309.06;;;11.17;100.00
56992;BME280;42885;49.754;18.636;2022-07-18T03:44:08;99309.05;;;10.97;100.00
56992;BME280;42885;49.754;18.636;2022-07-18T03:46:39;99311.03;;;11.11;100.00
56992;BME280;42885;49.754;18.636;2022-07-18T03:49:10;99305.02;;;11.28;100.00
56992;BME280;42885;49.754;18.636;2022-07-18T03:51:41;99308.58;;;11.36;100.00
56992;BME280;42885;49.754;18.636;2022-07-18T03:54:12;99308.17;;;11.46;100.00
56992;BME280;42885;49.754;18.636;2022-07-18T03:56:43;99303.65;;;11.11;100.00
56992;BME280;42885;49.754;18.636;2022-07-18T03:59:14;99303.58;;;10.93;100.00
56992;BME280;42885;49.754;18.636;2022-07-18T04:01:45;99304.53;;;11.20;100.00
56992;BME280;42885;49.754;18.636;2022-07-18T04:04:16;99313.01;;;10.87;100.00
56992;BME280;42885;49.754;18.636;2022-07-18T04:06:47;99314.36;;;11.15;100.00
56992;BME280;42885;49.754;18.636;2022-07-18T04:09:18;99317.95;;;11.42;100.00
56992;BME280;42885;49.754;18.636;2022-07-18T04:11:49;99315.50;;;11.56;100.00
56992;BME280;42885;49.754;18.636;2022-07-18T04:14:20;99309.01;;;11.08;100.00
56992;BME280;42885;49.754;18.636;2022-07-18T04:16:52;99313.09;;;11.43;100.00
56992;BME280;42885;49.754;18.636;2022-07-18T04:19:23;99308.28;;;11.34;100.00
56992;BME280;42885;49.754;18.636;2022-07-18T04:21:54;99309.54;;;11.90;100.00
56992;BME280;42885;49.754;18.636;2022-07-18T04:24:26;99310.14;;;11.86;100.00
56992;BME280;42885;49.754;18.636;2022-07-18T04:26:57;99304.40;;;12.32;100.00
56992;BME280;42885;49.754;18.636;2022-07-18T04:29:27;99312.20;;;12.07;100.00
56992;BME280;42885;49.754;18.636;2022-07-18T04:32:00;99307.26;;;12.28;100.00
56992;BME280;42885;49.754;18.636;2022-07-18T04:34:31;99303.88;;;12.34;100.00
56992;BME280;42885;49.754;18.636;2022-07-18T04:37:03;99307.41;;;12.51;100.00
56992;BME280;42885;49.754;18.636;2022-07-18T04:39:33;99303.58;;;12.65;100.00
56992;BME280;42885;49.754;18.636;2022-07-18T04:42:04;99300.25;;;12.79;100.00
56992;BME280;42885;49.754;18.636;2022-07-18T04:44:35;99308.32;;;12.92;100.00
56992;BME280;42885;49.754;18.636;2022-07-18T04:47:06;99300.64;;;13.38;100.00
56992;BME280;42885;49.754;18.636;2022-07-18T04:49:37;99300.37;;;13.42;100.00
56992;BME280;42885;49.754;18.636;2022-07-18T04:52:08;99300.75;;;13.43;100.00
56992;BME280;42885;49.754;18.636;2022-07-18T04:54:38;99299.52;;;13.51;100.00
56992;BME280;42885;49.754;18.636;2022-07-18T04:57:09;99297.19;;;13.60;100.00
56992;BME280;42885;49.754;18.636;2022-07-18T04:59:42;99301.28;;;13.73;100.00
56992;BME280;42885;49.754;18.636;2022-07-18T05:02:13;99294.61;;;13.98;100.00
56992;BME280;42885;49.754;18.636;2022-07-18T05:04:44;99288.72;;;14.09;100.00
56992;BME280;42885;49.754;18.636;2022-07-18T05:07:14;99285.70;;;14.61;100.00
56992;BME280;42885;49.754;18.636;2022-07-18T05:09:50;99289.94;;;14.63;100.00
56992;BME280;42885;49.754;18.636;2022-07-18T05:12:25;99287.66;;;14.50;100.00
56992;BME280;42885;49.754;18.636;2022-07-18T05:15:01;99286.73;;;14.72;100.00
56992;BME280;42885;49.754;18.636;2022-07-18T05:17:37;99288.70;;;14.62;100.00
56992;BME280;42885;49.754;18.636;2022-07-18T05:20:18;99286.82;;;14.71;100.00
56992;BME280;42885;49.754;18.636;2022-07-18T05:22:56;99289.86;;;14.86;100.00
56992;BME280;42885;49.754;18.636;2022-07-18T05:25:32;99286.08;;;14.98;100.00
56992;BME280;42885;49.754;18.636;2022-07-18T05:28:11;99283.14;;;15.10;100.00
56992;BME280;42885;49.754;18.636;2022-07-18T05:30:46;99286.56;;;15.05;100.00
56992;BME280;42885;49.754;18.636;2022-07-18T05:33:21;99284.45;;;15.10;100.00
56992;BME280;42885;49.754;18.636;2022-07-18T05:35:58;99284.22;;;15.35;100.00
56992;BME280;42885;49.754;18.636;2022-07-18T05:38:36;99282.95;;;15.27;100.00
56992;BME280;42885;49.754;18.636;2022-07-18T05:41:13;99279.88;;;15.41;100.00
56992;BME280;42885;49.754;18.636;2022-07-18T05:43:58;99277.10;;;15.57;100.00
56992;BME280;42885;49.754;18.636;2022-07-18T05:46:33;99282.16;;;15.88;100.00
56992;BME280;42885;49.754;18.636;2022-07-18T05:49:05;99274.25;;;16.08;100.00
56992;BME280;42885;49.754;18.636;2022-07-18T05:51:41;99272.36;;;16.36;100.00
56992;BME280;42885;49.754;18.636;2022-07-18T05:54:19;99270.81;;;16.26;100.00
56992;BME280;42885;49.754;18.636;2022-07-18T05:57:01;99271.45;;;16.30;100.00
56992;BME280;42885;49.754;18.636;2022-07-18T05:59:40;99265.71;;;16.43;100.00
56992;BME280;42885;49.754;18.636;2022-07-18T06:02:16;99266.30;;;16.41;100.00
56992;BME280;42885;49.754;18.636;2022-07-18T06:04:53;99265.23;;;16.57;100.00
56992;BME280;42885;49.754;18.636;2022-07-18T06:07:27;99251.78;;;16.73;100.00
56992;BME280;42885;49.754;18.636;2022-07-18T06:10:11;99248.88;;;16.89;100.00
56992;BME280;42885;49.754;18.636;2022-07-18T06:12:48;99254.37;;;16.99;100.00
56992;BME280;42885;49.754;18.636;2022-07-18T06:15:25;99247.46;;;17.03;100.00
56992;BME280;42885;49.754;18.636;2022-07-18T06:18:07;99256.35;;;17.02;100.00
56992;BME280;42885;49.754;18.636;2022-07-18T06:20:43;99252.41;;;17.08;100.00
56992;BME280;42885;49.754;18.636;2022-07-18T06:23:16;99256.42;;;17.32;100.00
56992;BME280;42885;49.754;18.636;2022-07-18T06:25:52;99253.14;;;17.53;100.00
56992;BME280;42885;49.754;18.636;2022-07-18T06:28:33;99256.08;;;17.67;100.00
56992;BME280;42885;49.754;18.636;2022-07-18T06:31:10;99250.84;;;17.73;100.00
56992;BME280;42885;49.754;18.636;2022-07-18T06:33:50;99253.63;;;17.88;100.00
56992;BME280;42885;49.754;18.636;2022-07-18T06:36:31;99252.11;;;18.03;100.00
56992;BME280;42885;49.754;18.636;2022-07-18T06:39:06;99252.20;;;18.37;100.00
56992;BME280;42885;49.754;18.636;2022-07-18T06:41:46;99258.11;;;18.47;100.00
56992;BME280;42885;49.754;18.636;2022-07-18T06:44:21;99258.25;;;18.51;100.00
56992;BME280;42885;49.754;18.636;2022-07-18T06:47:03;99258.48;;;18.59;100.00
56992;BME280;42885;49.754;18.636;2022-07-18T06:49:41;99262.45;;;18.70;100.00
56992;BME280;42885;49.754;18.636;2022-07-18T06:52:19;99265.48;;;18.83;100.00
56992;BME280;42885;49.754;18.636;2022-07-18T06:54:53;99261.37;;;19.19;100.00
56992;BME280;42885;49.754;18.636;2022-07-18T06:57:27;99265.56;;;19.21;100.00
56992;BME280;42885;49.754;18.636;2022-07-18T07:00:06;99264.72;;;19.26;100.00
56992;BME280;42885;49.754;18.636;2022-07-18T07:02:49;99261.41;;;19.46;100.00
56992;BME280;42885;49.754;18.636;2022-07-18T07:05:21;99267.17;;;19.57;100.00
56992;BME280;42885;49.754;18.636;2022-07-18T07:07:51;99263.16;;;19.62;100.00
56992;BME280;42885;49.754;18.636;2022-07-18T07:10:23;99259.20;;;19.57;100.00
56992;BME280;42885;49.754;18.636;2022-07-18T07:12:54;99264.05;;;19.51;100.00
56992;BME280;42885;49.754;18.636;2022-07-18T07:15:25;99256.61;;;19.72;100.00
56992;BME280;42885;49.754;18.636;2022-07-18T07:17:58;99252.66;;;19.88;100.00
56992;BME280;42885;49.754;18.636;2022-07-18T07:20:31;99245.88;;;20.16;100.00
56992;BME280;42885;49.754;18.636;2022-07-18T07:23:02;99256.40;;;19.91;100.00
56992;BME280;42885;49.754;18.636;2022-07-18T07:25:40;99246.98;;;19.87;100.00
56992;BME280;42885;49.754;18.636;2022-07-18T07:28:11;99252.02;;;20.01;100.00
56992;BME280;42885;49.754;18.636;2022-07-18T07:30:42;99251.12;;;20.12;100.00
56992;BME280;42885;49.754;18.636;2022-07-18T07:33:13;99251.53;;;20.54;100.00
56992;BME280;42885;49.754;18.636;2022-07-18T07:35:44;99247.52;;;20.60;100.00
56992;BME280;42885;49.754;18.636;2022-07-18T07:38:15;99238.16;;;20.66;100.00
56992;BME280;42885;49.754;18.636;2022-07-18T07:40:49;99236.08;;;20.69;100.00
56992;BME280;42885;49.754;18.636;2022-07-18T07:43:22;99240.02;;;20.59;100.00
56992;BME280;42885;49.754;18.636;2022-07-18T07:45:55;99234.51;;;20.82;100.00
56992;BME280;42885;49.754;18.636;2022-07-18T07:48:26;99243.73;;;20.94;100.00
56992;BME280;42885;49.754;18.636;2022-07-18T07:50:57;99239.27;;;21.04;100.00
56992;BME280;42885;49.754;18.636;2022-07-18T07:53:28;99235.97;;;21.22;100.00
56992;BME280;42885;49.754;18.636;2022-07-18T07:56:02;99230.10;;;21.48;100.00
56992;BME280;42885;49.754;18.636;2022-07-18T07:58:33;99218.40;;;21.84;100.00
56992;BME280;42885;49.754;18.636;2022-07-18T08:01:04;99227.03;;;21.92;100.00
56992;BME280;42885;49.754;18.636;2022-07-18T08:03:35;99226.95;;;21.78;99.08
56992;BME280;42885;49.754;18.636;2022-07-18T08:06:06;99227.23;;;21.55;90.46
56992;BME280;42885;49.754;18.636;2022-07-18T08:08:38;99238.72;;;21.36;89.57
56992;BME280;42885;49.754;18.636;2022-07-18T08:11:09;99233.66;;;21.62;95.30
56992;BME280;42885;49.754;18.636;2022-07-18T08:13:40;99232.96;;;21.60;89.83
56992;BME280;42885;49.754;18.636;2022-07-18T08:16:11;99234.69;;;21.81;89.31
56992;BME280;42885;49.754;18.636;2022-07-18T08:18:42;99229.18;;;22.02;89.69
56992;BME280;42885;49.754;18.636;2022-07-18T08:21:13;99225.48;;;22.37;81.05
56992;BME280;42885;49.754;18.636;2022-07-18T08:23:44;99224.88;;;22.39;75.86
56992;BME280;42885;49.754;18.636;2022-07-18T08:26:20;99229.34;;;22.14;71.14
56992;BME280;42885;49.754;18.636;2022-07-18T08:28:51;99227.47;;;22.35;64.49
56992;BME280;42885;49.754;18.636;2022-07-18T08:31:24;99223.13;;;22.34;55.33
56992;BME280;42885;49.754;18.636;2022-07-18T08:33:56;99217.80;;;22.86;52.35
56992;BME280;42885;49.754;18.636;2022-07-18T08:36:28;99216.46;;;22.86;50.50
56992;BME280;42885;49.754;18.636;2022-07-18T08:39:00;99222.41;;;22.79;52.67
56992;BME280;42885;49.754;18.636;2022-07-18T08:41:31;99215.54;;;23.23;48.75
56992;BME280;42885;49.754;18.636;2022-07-18T08:44:02;99212.81;;;23.19;47.23
56992;BME280;42885;49.754;18.636;2022-07-18T08:46:35;99215.14;;;23.18;45.56
56992;BME280;42885;49.754;18.636;2022-07-18T08:49:07;99214.32;;;23.17;45.62
56992;BME280;42885;49.754;18.636;2022-07-18T08:51:39;99215.82;;;23.20;47.53
56992;BME280;42885;49.754;18.636;2022-07-18T08:54:13;99221.98;;;23.02;46.51
56992;BME280;42885;49.754;18.636;2022-07-18T08:56:44;99223.58;;;22.81;46.25
56992;BME280;42885;49.754;18.636;2022-07-18T08:59:16;99219.38;;;23.06;47.27
56992;BME280;42885;49.754;18.636;2022-07-18T09:01:48;99220.65;;;23.02;45.63
56992;BME280;42885;49.754;18.636;2022-07-18T09:04:37;99217.05;;;23.07;45.17
56992;BME280;42885;49.754;18.636;2022-07-18T09:07:09;99218.66;;;23.18;44.57
56992;BME280;42885;49.754;18.636;2022-07-18T09:09:43;99212.33;;;23.19;46.51
56992;BME280;42885;49.754;18.636;2022-07-18T09:12:15;99226.45;;;22.55;44.88
56992;BME280;42885;49.754;18.636;2022-07-18T09:14:47;99225.33;;;22.72;48.90
56992;BME280;42885;49.754;18.636;2022-07-18T09:17:28;99227.00;;;22.73;47.06
56992;BME280;42885;49.754;18.636;2022-07-18T09:20:13;99222.50;;;23.20;44.34
56992;BME280;42885;49.754;18.636;2022-07-18T09:22:47;99214.86;;;23.07;45.00
56992;BME280;42885;49.754;18.636;2022-07-18T09:25:20;99214.55;;;22.78;45.45
56992;BME280;42885;49.754;18.636;2022-07-18T09:27:54;99207.67;;;23.21;44.82
56992;BME280;42885;49.754;18.636;2022-07-18T09:30:30;99210.80;;;23.31;44.13
56992;BME280;42885;49.754;18.636;2022-07-18T09:33:08;99204.66;;;23.34;45.50
56992;BME280;42885;49.754;18.636;2022-07-18T09:35:47;99205.33;;;23.36;46.26
56992;BME280;42885;49.754;18.636;2022-07-18T09:38:22;99203.83;;;23.34;45.33
56992;BME280;42885;49.754;18.636;2022-07-18T09:40:55;99206.73;;;23.85;44.41
56992;BME280;42885;49.754;18.636;2022-07-18T09:43:27;99204.11;;;23.67;43.40
56992;BME280;42885;49.754;18.636;2022-07-18T09:46:00;99202.59;;;23.46;43.97
56992;BME280;42885;49.754;18.636;2022-07-18T09:48:33;99203.05;;;23.60;43.92
56992;BME280;42885;49.754;18.636;2022-07-18T09:51:06;99204.26;;;24.10;43.11
56992;BME280;42885;49.754;18.636;2022-07-18T09:53:39;99202.45;;;23.92;41.69
56992;BME280;42885;49.754;18.636;2022-07-18T09:56:13;99205.93;;;24.11;43.05
56992;BME280;42885;49.754;18.636;2022-07-18T09:58:52;99204.58;;;24.07;42.15
56992;BME280;42885;49.754;18.636;2022-07-18T10:01:27;99199.95;;;24.13;42.52
56992;BME280;42885;49.754;18.636;2022-07-18T10:03:59;99197.91;;;24.11;44.57
56992;BME280;42885;49.754;18.636;2022-07-18T10:06:32;99197.90;;;24.07;43.04
56992;BME280;42885;49.754;18.636;2022-07-18T10:09:06;99202.33;;;23.76;41.18
56992;BME280;42885;49.754;18.636;2022-07-18T10:11:35;99201.52;;;24.24;41.69
56992;BME280;42885;49.754;18.636;2022-07-18T10:14:07;99199.00;;;24.27;45.02
56992;BME280;42885;49.754;18.636;2022-07-18T10:16:41;99200.77;;;24.44;41.41
56992;BME280;42885;49.754;18.636;2022-07-18T10:19:12;99199.72;;;23.84;41.86
56992;BME280;42885;49.754;18.636;2022-07-18T10:21:48;99198.41;;;24.37;42.69
56992;BME280;42885;49.754;18.636;2022-07-18T10:24:21;99198.83;;;24.02;41.14
56992;BME280;42885;49.754;18.636;2022-07-18T10:27:17;99195.92;;;24.44;41.56
56992;BME280;42885;49.754;18.636;2022-07-18T10:30:11;99191.02;;;24.66;40.97
56992;BME280;42885;49.754;18.636;2022-07-18T10:32:43;99188.64;;;24.28;40.65
56992;BME280;42885;49.754;18.636;2022-07-18T10:35:16;99181.67;;;24.78;39.84
56992;BME280;42885;49.754;18.636;2022-07-18T10:37:47;99190.86;;;24.71;40.45
56992;BME280;42885;49.754;18.636;2022-07-18T10:40:25;99181.64;;;24.66;38.06
56992;BME280;42885;49.754;18.636;2022-07-18T10:46:05;99177.91;;;25.10;40.26
56992;BME280;42885;49.754;18.636;2022-07-18T10:51:13;99179.66;;;25.65;36.00
56992;BME280;42885;49.754;18.636;2022-07-18T10:54:04;99178.95;;;25.34;35.55
56992;BME280;42885;49.754;18.636;2022-07-18T10:59:18;99175.28;;;25.31;37.49
56992;BME280;42885;49.754;18.636;2022-07-18T11:01:54;99169.92;;;25.76;37.29
56992;BME280;42885;49.754;18.636;2022-07-18T11:04:35;99169.57;;;25.13;36.37
56992;BME280;42885;49.754;18.636;2022-07-18T11:07:14;99168.89;;;25.15;37.29
56992;BME280;42885;49.754;18.636;2022-07-18T11:09:47;99162.55;;;25.41;35.08
56992;BME280;42885;49.754;18.636;2022-07-18T11:12:21;99163.55;;;25.90;35.65
56992;BME280;42885;49.754;18.636;2022-07-18T11:15:11;99155.16;;;25.84;36.57
56992;BME280;42885;49.754;18.636;2022-07-18T11:17:58;99156.16;;;25.92;37.35
56992;BME280;42885;49.754;18.636;2022-07-18T11:20:36;99148.54;;;26.33;37.53
56992;BME280;42885;49.754;18.636;2022-07-18T11:23:31;99142.61;;;26.46;38.12
56992;BME280;42885;49.754;18.636;2022-07-18T11:25:53;99135.62;;;26.32;36.89
56992;BME280;42885;49.754;18.636;2022-07-18T11:28:27;99135.66;;;26.28;35.84
56992;BME280;42885;49.754;18.636;2022-07-18T11:31:06;99130.91;;;26.70;35.91
56992;BME280;42885;49.754;18.636;2022-07-18T11:33:41;99127.94;;;26.92;36.01
56992;BME280;42885;49.754;18.636;2022-07-18T11:36:18;99132.94;;;27.23;36.67
56992;BME280;42885;49.754;18.636;2022-07-18T11:38:51;99134.30;;;27.19;35.36
56992;BME280;42885;49.754;18.636;2022-07-18T11:41:21;99128.69;;;27.05;36.02
56992;BME280;42885;49.754;18.636;2022-07-18T11:43:54;99131.95;;;27.39;37.69
56992;BME280;42885;49.754;18.636;2022-07-18T11:46:26;99123.42;;;26.57;38.61
56992;BME280;42885;49.754;18.636;2022-07-18T11:49:01;99123.83;;;26.46;37.47
56992;BME280;42885;49.754;18.636;2022-07-18T11:51:42;99117.20;;;27.35;35.13
56992;BME280;42885;49.754;18.636;2022-07-18T11:54:09;99116.66;;;27.78;35.34
56992;BME280;42885;49.754;18.636;2022-07-18T11:56:50;99116.66;;;27.78;35.34
56992;BME280;42885;49.754;18.636;2022-07-18T11:59:21;99116.86;;;27.38;35.65
56992;BME280;42885;49.754;18.636;2022-07-18T12:01:52;99112.45;;;27.03;33.78
56992;BME280;42885;49.754;18.636;2022-07-18T12:04:25;99109.33;;;28.17;34.97
56992;BME280;42885;49.754;18.636;2022-07-18T12:07:20;99109.33;;;28.17;34.97
56992;BME280;42885;49.754;18.636;2022-07-18T12:09:53;99104.05;;;28.09;35.08
56992;BME280;42885;49.754;18.636;2022-07-18T12:12:24;99096.58;;;28.15;32.57
56992;BME280;42885;49.754;18.636;2022-07-18T12:14:57;99092.73;;;28.54;34.39
56992;BME280;42885;49.754;18.636;2022-07-18T12:17:29;99096.72;;;28.33;32.97
56992;BME280;42885;49.754;18.636;2022-07-18T12:20:20;99100.33;;;27.45;35.06
56992;BME280;42885;49.754;18.636;2022-07-18T12:23:09;99091.19;;;28.45;34.32
56992;BME280;42885;49.754;18.636;2022-07-18T12:25:56;99090.23;;;28.12;31.84
56992;BME280;42885;49.754;18.636;2022-07-18T12:28:28;99091.16;;;28.19;33.83
56992;BME280;42885;49.754;18.636;2022-07-18T12:30:59;99085.12;;;28.80;33.38
56992;BME280;42885;49.754;18.636;2022-07-18T12:33:30;99083.52;;;28.27;34.82
56992;BME280;42885;49.754;18.636;2022-07-18T12:36:01;99085.25;;;28.35;35.46
56992;BME280;42885;49.754;18.636;2022-07-18T12:38:31;99086.67;;;28.78;32.87
56992;BME280;42885;49.754;18.636;2022-07-18T12:41:02;99085.46;;;28.81;31.12
56992;BME280;42885;49.754;18.636;2022-07-18T12:43:35;99084.60;;;28.69;31.75
56992;BME280;42885;49.754;18.636;2022-07-18T12:46:08;99080.30;;;28.75;31.70
56992;BME280;42885;49.754;18.636;2022-07-18T12:48:39;99086.55;;;29.08;31.14
56992;BME280;42885;49.754;18.636;2022-07-18T12:51:11;99077.02;;;28.84;30.55
56992;BME280;42885;49.754;18.636;2022-07-18T12:53:43;99076.17;;;29.05;31.07
56992;BME280;42885;49.754;18.636;2022-07-18T12:56:14;99070.66;;;28.92;30.89
56992;BME280;42885;49.754;18.636;2022-07-18T12:58:45;99065.66;;;29.67;30.83
56992;BME280;42885;49.754;18.636;2022-07-18T13:01:16;99066.23;;;29.34;30.64
56992;BME280;42885;49.754;18.636;2022-07-18T13:03:48;99059.00;;;29.46;31.08
56992;BME280;42885;49.754;18.636;2022-07-18T13:06:19;99063.98;;;29.38;29.98
56992;BME280;42885;49.754;18.636;2022-07-18T13:08:49;99058.84;;;30.07;29.64
56992;BME280;42885;49.754;18.636;2022-07-18T13:11:21;99057.67;;;30.61;30.62
56992;BME280;42885;49.754;18.636;2022-07-18T13:13:52;99056.20;;;30.20;30.21
56992;BME280;42885;49.754;18.636;2022-07-18T13:16:23;99067.61;;;30.92;30.15
56992;BME280;42885;49.754;18.636;2022-07-18T13:18:54;99054.03;;;31.93;28.04
56992;BME280;42885;49.754;18.636;2022-07-18T13:21:25;99053.89;;;31.47;27.79
56992;BME280;42885;49.754;18.636;2022-07-18T13:23:56;99063.48;;;31.29;29.02
56992;BME280;42885;49.754;18.636;2022-07-18T13:26:26;99059.61;;;31.48;28.36
56992;BME280;42885;49.754;18.636;2022-07-18T13:28:58;99054.28;;;31.64;27.99